createdAt,value
2019-05-16T00:02:51.554Z,30.65
2019-05-16T00:05:22.426Z,26.45
2019-05-16T00:07:53.367Z,48.65
2019-05-16T00:10:24.239Z,40.05
2019-05-16T00:12:55.491Z,35.45
2019-05-16T00:15:28.481Z,32.10
2019-05-16T00:17:58.649Z,35.33
2019-05-16T00:20:29.481Z,30.55
2019-05-16T00:23:00.417Z,31.10
2019-05-16T00:25:31.366Z,28.52
2019-05-16T00:28:02.227Z,29.20
2019-05-16T00:30:32.942Z,33.25
2019-05-16T00:33:03.756Z,32.03
2019-05-16T00:35:34.615Z,32.93
2019-05-16T00:38:05.362Z,26.20
2019-05-16T00:40:38.032Z,29.40
2019-05-16T00:43:08.475Z,30.57
2019-05-16T00:45:39.295Z,27.55
2019-05-16T00:48:21.725Z,28.10
2019-05-16T00:50:52.832Z,28.75
2019-05-16T00:53:23.726Z,34.30
2019-05-16T00:55:55.255Z,31.48
2019-05-16T00:58:28.414Z,96.42
2019-05-16T01:00:59.324Z,34.08
2019-05-16T01:03:30.397Z,24.63
2019-05-16T01:06:01.258Z,65.08
2019-05-16T01:08:32.176Z,40.85
2019-05-16T01:11:03.142Z,31.10
2019-05-16T01:13:33.931Z,33.92
2019-05-16T01:16:05.184Z,35.60
2019-05-16T01:18:37.987Z,28.40
2019-05-16T01:21:08.889Z,31.37
2019-05-16T01:23:40.067Z,28.35
2019-05-16T01:26:11.139Z,29.72
2019-05-16T01:28:42.025Z,25.68
2019-05-16T01:31:18.634Z,27.70
2019-05-16T01:33:48.710Z,33.18
2019-05-16T01:36:33.406Z,30.02
2019-05-16T01:38:52.999Z,31.23
2019-05-16T01:41:23.825Z,33.18
2019-05-16T01:43:54.626Z,25.90
2019-05-16T01:46:25.539Z,34.58
2019-05-16T01:48:58.048Z,37.15
2019-05-16T01:51:29.737Z,32.13
2019-05-16T01:54:00.732Z,32.33
2019-05-16T01:56:31.866Z,32.13
2019-05-16T01:59:02.699Z,30.02
2019-05-16T02:01:33.714Z,32.08
2019-05-16T02:04:05.407Z,29.55
2019-05-16T02:06:48.429Z,28.55
2019-05-16T02:09:23.198Z,34.78
2019-05-16T02:11:54.232Z,37.60
2019-05-16T02:14:28.192Z,33.63
2019-05-16T02:16:58.496Z,29.00
2019-05-16T02:19:29.424Z,29.05
2019-05-16T02:22:00.462Z,23.60
2019-05-16T02:24:31.486Z,40.83
2019-05-16T02:27:02.387Z,26.17
2019-05-16T02:29:33.329Z,34.13
2019-05-16T02:32:04.216Z,29.27
2019-05-16T02:34:35.342Z,32.53
2019-05-16T02:37:22.556Z,32.70
2019-05-16T02:39:40.930Z,34.35
2019-05-16T02:42:12.214Z,33.30
2019-05-16T02:44:43.533Z,29.37
2019-05-16T02:47:14.512Z,31.20
2019-05-16T02:49:45.582Z,29.27
2019-05-16T02:52:16.292Z,37.23
2019-05-16T02:54:47.291Z,32.05
2019-05-16T02:57:20.966Z,28.47
2019-05-16T02:59:51.033Z,31.95
2019-05-16T03:02:22.472Z,26.80
2019-05-16T03:04:53.441Z,41.00
2019-05-16T03:07:37.868Z,31.85
2019-05-16T03:10:01.599Z,29.80
2019-05-16T03:12:31.992Z,37.78
2019-05-16T03:15:03.195Z,26.87
2019-05-16T03:17:36.246Z,23.90
2019-05-16T03:20:10.795Z,26.35
2019-05-16T03:22:42.159Z,24.32
2019-05-16T03:25:13.151Z,24.67
2019-05-16T03:27:43.991Z,18.42
2019-05-16T03:30:16.626Z,21.48
2019-05-16T03:32:47.151Z,22.15
2019-05-16T03:35:23.822Z,22.35
2019-05-16T03:37:57.044Z,21.50
2019-05-16T03:40:25.241Z,22.07
2019-05-16T03:42:56.240Z,25.60
2019-05-16T03:45:26.986Z,18.30
2019-05-16T03:48:02.266Z,24.52
2019-05-16T03:50:30.607Z,19.52
2019-05-16T03:53:01.819Z,22.82
2019-05-16T03:55:33.118Z,32.58
2019-05-16T03:58:03.948Z,22.60
2019-05-16T04:00:37.355Z,24.82
2019-05-16T04:03:11.388Z,22.90
2019-05-16T04:05:41.350Z,25.80
2019-05-16T04:08:19.429Z,20.35
2019-05-16T04:10:45.646Z,22.27
2019-05-16T04:13:16.542Z,31.65
2019-05-16T04:15:47.652Z,23.65
2019-05-16T04:18:21.570Z,34.60
2019-05-16T04:20:52.723Z,34.03
2019-05-16T04:23:24.431Z,22.25
2019-05-16T04:25:55.610Z,30.77
2019-05-16T04:28:26.978Z,17.57
2019-05-16T04:31:01.451Z,24.32
2019-05-16T04:33:31.162Z,19.75
2019-05-16T04:36:02.156Z,27.82
2019-05-16T04:38:40.828Z,21.25
2019-05-16T04:41:05.525Z,37.10
2019-05-16T04:43:36.428Z,17.77
2019-05-16T04:46:07.331Z,17.55
2019-05-16T04:48:41.433Z,21.23
2019-05-16T04:51:10.645Z,19.37
2019-05-16T04:53:42.597Z,18.42
2019-05-16T04:56:13.928Z,19.52
2019-05-16T04:58:45.300Z,17.60
2019-05-16T05:01:16.727Z,22.50
2019-05-16T05:04:01.858Z,21.73
2019-05-16T05:06:20.848Z,23.22
2019-05-16T05:09:03.074Z,24.90
2019-05-16T05:11:32.781Z,24.12
2019-05-16T05:14:04.119Z,20.60
2019-05-16T05:16:35.060Z,21.23
2019-05-16T05:19:05.840Z,21.55
2019-05-16T05:21:37.175Z,34.38
2019-05-16T05:24:10.670Z,23.80
2019-05-16T05:26:41.442Z,34.05
2019-05-16T05:29:14.493Z,27.52
2019-05-16T05:31:45.752Z,24.47
2019-05-16T05:34:16.861Z,30.00
2019-05-16T05:36:48.039Z,24.05
2019-05-16T05:39:20.306Z,21.82
2019-05-16T05:41:51.009Z,25.77
2019-05-16T05:44:22.147Z,23.20
2019-05-16T05:46:52.914Z,33.53
2019-05-16T05:49:23.840Z,37.28
2019-05-16T05:51:54.818Z,24.02
2019-05-16T05:54:25.659Z,35.08
2019-05-16T05:56:56.860Z,24.27
2019-05-16T05:59:30.437Z,35.30
2019-05-16T06:02:00.888Z,29.32
2019-05-16T06:04:32.127Z,27.93
2019-05-16T06:07:03.026Z,25.70
2019-05-16T06:09:34.162Z,18.57
2019-05-16T06:12:07.540Z,24.55
2019-05-16T06:14:37.383Z,20.95
2019-05-16T06:17:11.254Z,23.87
2019-05-16T06:19:40.502Z,25.68
2019-05-16T06:22:11.221Z,23.07
2019-05-16T06:24:42.367Z,28.35
2019-05-16T06:27:13.228Z,30.68
2019-05-16T06:29:44.162Z,34.83
2019-05-16T06:32:16.561Z,21.68
2019-05-16T06:34:48.019Z,17.35
2019-05-16T06:37:20.522Z,28.47
2019-05-16T06:39:51.688Z,24.20
2019-05-16T06:42:22.601Z,46.98
2019-05-16T06:44:53.550Z,37.58
2019-05-16T06:47:24.645Z,24.27
2019-05-16T06:49:55.949Z,24.30
2019-05-16T06:52:26.812Z,18.42
2019-05-16T06:54:57.690Z,24.37
2019-05-16T06:57:30.218Z,17.15
2019-05-16T07:00:00.759Z,22.25
2019-05-16T07:02:34.526Z,15.30
2019-05-16T07:05:04.682Z,13.43
2019-05-16T07:07:35.567Z,16.17
2019-05-16T07:10:09.578Z,16.00
2019-05-16T07:12:41.374Z,11.88
2019-05-16T07:15:13.207Z,15.03
2019-05-16T07:18:04.424Z,17.37
2019-05-16T07:20:35.287Z,14.03
2019-05-16T07:23:06.794Z,21.97
2019-05-16T07:25:40.628Z,16.17
2019-05-16T07:28:10.623Z,14.53
2019-05-16T07:30:41.442Z,10.68
2019-05-16T07:33:12.399Z,12.18
2019-05-16T07:35:43.491Z,11.50
2019-05-16T07:38:14.620Z,11.88
2019-05-16T07:40:45.970Z,10.82
2019-05-16T07:43:39.927Z,15.28
2019-05-16T07:46:11.111Z,15.13
2019-05-16T07:48:42.354Z,29.25
2019-05-16T07:51:13.295Z,27.73
2019-05-16T07:53:44.325Z,18.07
2019-05-16T07:56:15.340Z,19.15
2019-05-16T07:58:46.319Z,26.33
2019-05-16T08:01:22.583Z,33.40
2019-05-16T08:03:53.805Z,18.75
2019-05-16T08:06:24.654Z,18.82
2019-05-16T08:08:55.575Z,20.92
2019-05-16T08:11:26.671Z,13.62
2019-05-16T08:13:57.475Z,13.70
2019-05-16T08:16:30.583Z,14.40
2019-05-16T08:19:00.987Z,15.98
2019-05-16T08:21:32.674Z,17.27
2019-05-16T08:24:07.277Z,20.65
2019-05-16T08:26:40.035Z,21.42
2019-05-16T08:29:08.308Z,24.52
2019-05-16T08:31:43.070Z,31.65
2019-05-16T08:34:13.649Z,25.62
2019-05-16T08:36:44.811Z,15.83
2019-05-16T08:39:15.931Z,18.82
2019-05-16T08:41:47.208Z,15.48
2019-05-16T08:44:21.503Z,16.57
2019-05-16T08:49:27.288Z,13.08
2019-05-16T08:52:01.254Z,13.05
2019-05-16T08:54:32.797Z,12.80
2019-05-16T08:57:25.590Z,13.58
2019-05-16T08:59:37.538Z,12.33
2019-05-16T09:02:12.538Z,13.22
2019-05-16T09:04:44.150Z,19.87
2019-05-16T09:07:15.340Z,18.20
2019-05-16T09:09:51.039Z,15.18
2019-05-16T09:10:41.403Z,14.65
2019-05-16T09:12:18.343Z,16.80
2019-05-16T09:14:59.698Z,15.40
2019-05-16T09:17:31.269Z,17.37
2019-05-16T09:20:19.791Z,14.20
2019-05-16T09:22:51.337Z,17.65
2019-05-16T09:25:24.026Z,15.35
2019-05-16T09:27:58.633Z,14.15
2019-05-16T09:30:29.579Z,16.07
2019-05-16T09:33:00.496Z,38.55
2019-05-16T09:35:31.167Z,27.48
2019-05-16T09:38:02.127Z,17.73
2019-05-16T09:40:38.682Z,18.23
2019-05-16T09:43:08.085Z,17.75
2019-05-16T09:45:38.809Z,15.08
2019-05-16T09:48:11.748Z,15.48
2019-05-16T09:50:42.808Z,22.50
2019-05-16T09:53:13.623Z,16.05
2019-05-16T09:55:46.790Z,16.55
2019-05-16T09:58:18.290Z,12.78
2019-05-16T10:00:49.930Z,12.82
2019-05-16T10:03:22.651Z,16.37
2019-05-16T10:05:53.387Z,15.85
2019-05-16T10:08:26.551Z,29.67
2019-05-16T10:10:58.785Z,29.90
2019-05-16T10:13:29.739Z,21.25
2019-05-16T10:16:00.574Z,17.60
2019-05-16T10:18:31.616Z,16.67
2019-05-16T10:21:03.395Z,21.57
2019-05-16T10:23:36.284Z,17.05
2019-05-16T10:26:06.574Z,20.62
2019-05-16T10:28:38.455Z,21.05
2019-05-16T10:31:09.486Z,16.32
2019-05-16T10:33:40.189Z,17.85
2019-05-16T10:36:11.137Z,14.15
2019-05-16T10:38:42.042Z,9.73
2019-05-16T10:41:12.874Z,15.78
2019-05-16T10:43:43.658Z,17.23
2019-05-16T10:46:17.442Z,9.50
2019-05-16T10:48:47.019Z,10.95
2019-05-16T10:51:17.898Z,11.45
2019-05-16T10:54:13.033Z,9.38
2019-05-16T10:56:21.329Z,11.80
2019-05-16T10:59:25.827Z,13.75
2019-05-16T11:01:28.653Z,14.70
2019-05-16T11:03:56.885Z,13.38
2019-05-16T11:06:29.421Z,13.90
2019-05-16T11:09:00.116Z,12.80
2019-05-16T11:11:31.007Z,14.00
2019-05-16T11:14:01.729Z,12.95
2019-05-16T11:16:32.714Z,12.25
2019-05-16T11:19:14.413Z,13.08
2019-05-16T11:21:37.614Z,11.28
2019-05-16T11:24:12.908Z,8.20
2019-05-16T11:26:40.124Z,11.33
2019-05-16T11:29:11.063Z,11.48
2019-05-16T11:31:41.881Z,10.63
2019-05-16T11:34:12.667Z,9.23
2019-05-16T11:36:43.680Z,12.23
2019-05-16T11:39:17.250Z,11.93
2019-05-16T11:41:47.575Z,11.78
2019-05-16T11:44:18.669Z,12.70
2019-05-16T11:46:49.562Z,12.68
2019-05-16T11:49:20.220Z,11.75
2019-05-16T11:51:50.996Z,9.65
2019-05-16T11:54:22.067Z,10.10
2019-05-16T11:56:52.951Z,11.48
2019-05-16T11:59:23.743Z,10.88
2019-05-16T12:01:54.616Z,14.83
2019-05-16T12:04:27.898Z,13.22
2019-05-16T12:06:57.537Z,14.00
2019-05-16T12:09:33.445Z,11.90
2019-05-16T12:12:04.050Z,9.63
2019-05-16T12:14:32.647Z,12.82
2019-05-16T12:17:03.622Z,10.18
2019-05-16T12:19:37.703Z,9.93
2019-05-16T12:22:07.074Z,15.45
2019-05-16T12:24:41.347Z,11.68
2019-05-16T12:27:10.494Z,18.35
2019-05-16T12:29:41.316Z,11.85
2019-05-16T12:32:12.260Z,12.30
2019-05-16T12:34:43.180Z,9.88
2019-05-16T12:37:14.175Z,10.90
2019-05-16T12:39:46.975Z,14.98
2019-05-16T12:42:17.148Z,10.93
2019-05-16T12:44:47.949Z,8.75
2019-05-16T12:47:18.898Z,11.65
2019-05-16T12:49:49.714Z,11.33
2019-05-16T12:52:20.571Z,11.43
2019-05-16T12:54:51.542Z,11.53
2019-05-16T12:57:27.941Z,9.23
2019-05-16T12:59:56.911Z,12.35
2019-05-16T13:02:27.338Z,13.08
2019-05-16T13:04:58.385Z,10.82
2019-05-16T13:07:29.134Z,13.68
2019-05-16T13:09:59.984Z,8.23
2019-05-16T13:12:30.972Z,12.82
2019-05-16T13:15:01.761Z,10.20
2019-05-16T13:17:32.747Z,11.30
2019-05-16T13:20:03.488Z,9.73
2019-05-16T13:22:34.324Z,13.68
2019-05-16T13:25:07.445Z,10.93
2019-05-16T13:27:38.447Z,10.93
2019-05-16T13:30:11.726Z,11.25
2019-05-16T13:32:42.628Z,8.15
2019-05-16T13:35:16.724Z,10.55
2019-05-16T13:37:47.711Z,10.23
2019-05-16T13:40:18.972Z,10.82
2019-05-16T13:42:49.798Z,9.10
2019-05-16T13:45:20.794Z,10.35
2019-05-16T13:47:51.653Z,9.38
2019-05-16T13:50:22.900Z,12.05
2019-05-16T13:52:53.882Z,11.30
2019-05-16T13:55:27.036Z,12.78
2019-05-16T13:57:57.207Z,7.17
2019-05-16T14:00:28.456Z,10.00
2019-05-16T14:02:59.085Z,7.62
2019-05-16T14:05:30.105Z,10.80
2019-05-16T14:08:00.771Z,7.33
2019-05-16T14:10:31.628Z,8.35
2019-05-16T14:13:02.463Z,8.65
2019-05-16T14:15:33.352Z,10.28
2019-05-16T14:18:04.003Z,10.72
2019-05-16T14:20:37.386Z,9.83
2019-05-16T14:23:08.625Z,10.10
2019-05-16T14:25:39.458Z,11.38
2019-05-16T14:28:10.391Z,8.53
2019-05-16T14:30:41.148Z,9.68
2019-05-16T14:33:14.103Z,10.65
2019-05-16T14:35:44.300Z,10.75
2019-05-16T14:38:17.350Z,9.75
2019-05-16T14:40:50.137Z,10.30
2019-05-16T14:43:19.818Z,11.25
2019-05-16T14:45:50.804Z,12.03
2019-05-16T14:48:21.491Z,12.43
2019-05-16T14:50:52.362Z,14.65
2019-05-16T14:53:23.201Z,11.35
2019-05-16T14:55:53.993Z,18.17
2019-05-16T14:58:30.354Z,15.83
2019-05-16T15:00:57.482Z,13.72
2019-05-16T15:03:28.577Z,17.90
2019-05-16T15:05:59.388Z,16.00
2019-05-16T15:08:30.245Z,11.18
2019-05-16T15:11:01.298Z,13.83
2019-05-16T15:13:32.099Z,15.18
2019-05-16T15:16:03.048Z,16.23
2019-05-16T15:18:33.900Z,13.35
2019-05-16T15:21:08.034Z,11.60
2019-05-16T15:23:36.959Z,12.28
2019-05-16T15:26:09.409Z,13.18
2019-05-16T15:28:39.910Z,18.30
2019-05-16T15:31:10.925Z,16.20
2019-05-16T15:33:41.844Z,14.18
2019-05-16T15:36:12.706Z,13.10
2019-05-16T15:38:43.410Z,14.78
2019-05-16T15:41:16.501Z,17.45
2019-05-16T15:43:46.523Z,20.43
2019-05-16T15:46:17.534Z,16.00
2019-05-16T15:48:48.921Z,19.75
2019-05-16T15:51:21.258Z,16.77
2019-05-16T15:53:52.336Z,21.05
2019-05-16T15:56:23.244Z,19.62
2019-05-16T15:58:54.070Z,24.80
2019-05-16T16:01:26.873Z,21.35
2019-05-16T16:03:56.901Z,26.12
2019-05-16T16:06:27.942Z,21.73
2019-05-16T16:08:58.730Z,18.70
2019-05-16T16:11:29.783Z,19.45
2019-05-16T16:14:00.620Z,21.07
2019-05-16T16:16:31.604Z,22.37
2019-05-16T16:19:02.430Z,29.20
2019-05-16T16:21:33.422Z,25.60
2019-05-16T16:24:08.149Z,20.25
2019-05-16T16:26:38.163Z,19.62
2019-05-16T16:29:08.864Z,20.08
2019-05-16T16:31:39.653Z,21.57
2019-05-16T16:34:10.417Z,23.05
2019-05-16T16:36:41.184Z,19.87
2019-05-16T16:39:12.085Z,21.87
2019-05-16T16:41:42.896Z,20.88
2019-05-16T16:44:13.803Z,19.75
2019-05-16T16:46:46.657Z,22.07
2019-05-16T16:49:17.265Z,19.85
2019-05-16T16:51:48.476Z,18.73
2019-05-16T16:54:19.245Z,18.57
2019-05-16T16:56:50.210Z,26.45
2019-05-16T16:59:21.130Z,25.80
2019-05-16T17:01:51.941Z,22.45
2019-05-16T17:04:22.658Z,26.65
2019-05-16T17:06:53.449Z,20.27
2019-05-16T17:09:26.842Z,19.82
2019-05-16T17:11:57.080Z,24.18
2019-05-16T17:14:28.036Z,20.65
2019-05-16T17:16:58.847Z,25.65
2019-05-16T17:19:29.775Z,23.80
2019-05-16T17:22:12.962Z,23.12
2019-05-16T17:24:32.641Z,23.00
2019-05-16T17:27:03.624Z,26.65
2019-05-16T17:29:36.753Z,23.57
2019-05-16T17:32:09.980Z,27.13
2019-05-16T17:34:38.639Z,23.75
2019-05-16T17:37:09.807Z,23.07
2019-05-16T17:39:40.632Z,22.02
2019-05-16T17:42:11.450Z,22.58
2019-05-16T17:44:42.336Z,20.68
2019-05-16T17:47:13.247Z,26.10
2019-05-16T17:49:46.122Z,22.73
2019-05-16T17:52:16.580Z,24.25
2019-05-16T17:54:47.546Z,24.47
2019-05-16T17:57:18.275Z,22.82
2019-05-16T17:59:49.136Z,24.57
2019-05-16T18:02:20.102Z,19.90
2019-05-16T18:04:50.933Z,26.73
2019-05-16T18:07:23.053Z,23.75
2019-05-16T18:09:53.905Z,23.95
2019-05-16T18:12:27.388Z,26.68
2019-05-16T18:14:57.163Z,27.48
2019-05-16T18:17:28.342Z,26.80
2019-05-16T18:19:59.071Z,26.52
2019-05-16T18:22:30.005Z,28.12
2019-05-16T18:25:00.861Z,30.40
2019-05-16T18:27:32.294Z,25.17
2019-05-16T18:30:03.236Z,26.82
2019-05-16T18:32:34.067Z,26.52
2019-05-16T18:35:07.343Z,27.32
2019-05-16T18:37:37.895Z,23.57
2019-05-16T18:40:09.470Z,31.60
2019-05-16T18:42:40.488Z,29.40
2019-05-16T18:45:12.096Z,29.05
2019-05-16T18:47:42.928Z,30.50
2019-05-16T18:50:14.340Z,30.12
2019-05-16T18:52:47.059Z,27.48
2019-05-16T18:55:17.398Z,34.27
2019-05-16T18:57:48.200Z,27.42
2019-05-16T19:00:19.363Z,32.73
2019-05-16T19:02:50.295Z,30.70
2019-05-16T19:05:21.319Z,30.55
2019-05-16T19:07:52.298Z,30.00
2019-05-16T19:10:23.291Z,29.52
2019-05-16T19:12:54.164Z,29.10
2019-05-16T19:15:26.619Z,29.77
2019-05-16T19:17:58.648Z,30.50
2019-05-16T19:20:29.732Z,33.18
2019-05-16T19:23:00.672Z,28.60
2019-05-16T19:25:31.362Z,32.45
2019-05-16T19:28:02.259Z,34.10
2019-05-16T19:30:33.317Z,30.45
2019-05-16T19:33:04.103Z,32.48
2019-05-16T19:35:34.969Z,36.00
2019-05-16T19:38:06.941Z,31.48
2019-05-16T19:40:40.483Z,32.53
2019-05-16T19:43:10.359Z,27.30
2019-05-16T19:45:41.229Z,26.17
2019-05-16T19:48:12.104Z,28.55
2019-05-16T19:50:42.847Z,29.57
2019-05-16T19:53:13.755Z,31.07
2019-05-16T19:55:46.865Z,31.02
2019-05-16T19:58:16.993Z,32.80
2019-05-16T20:00:47.873Z,36.53
2019-05-16T20:03:18.826Z,34.95
2019-05-16T20:05:49.731Z,35.78
2019-05-16T20:08:20.532Z,41.00
2019-05-16T20:10:51.450Z,37.63
2019-05-16T20:13:22.300Z,37.63
2019-05-16T20:15:53.273Z,32.58
2019-05-16T20:18:24.161Z,32.25
2019-05-16T20:20:56.823Z,31.15
2019-05-16T20:23:27.753Z,27.15
2019-05-16T20:25:58.625Z,30.32
2019-05-16T20:28:29.476Z,31.52
2019-05-16T20:31:00.841Z,28.67
2019-05-16T20:33:31.733Z,37.23
2019-05-16T20:36:02.603Z,32.15
2019-05-16T20:38:33.588Z,31.95
2019-05-16T20:41:04.434Z,33.73
2019-05-16T20:43:36.824Z,29.52
2019-05-16T20:46:07.760Z,33.10
2019-05-16T20:48:38.699Z,31.10
2019-05-16T20:51:09.749Z,34.63
2019-05-16T20:53:40.640Z,31.05
2019-05-16T20:56:11.519Z,30.17
2019-05-16T20:58:42.332Z,31.68
2019-05-16T21:01:13.287Z,29.55
2019-05-16T21:03:46.647Z,31.68
2019-05-16T21:06:17.091Z,26.70
2019-05-16T21:08:49.643Z,29.12
2019-05-16T21:11:20.352Z,28.70
2019-05-16T21:13:51.302Z,26.07
2019-05-16T21:16:22.118Z,27.42
2019-05-16T21:18:53.013Z,28.10
2019-05-16T21:21:23.897Z,29.57
2019-05-16T21:23:56.251Z,29.07
2019-05-16T21:26:26.895Z,28.07
2019-05-16T21:28:58.522Z,28.00
2019-05-16T21:31:29.361Z,28.05
2019-05-16T21:34:00.164Z,28.85
2019-05-16T21:36:31.266Z,33.58
2019-05-16T21:39:01.960Z,32.70
2019-05-16T21:41:32.927Z,25.40
2019-05-16T21:44:03.718Z,25.40
2019-05-16T21:46:36.387Z,28.60
2019-05-16T21:49:07.510Z,26.97
2019-05-16T21:51:38.408Z,27.77
2019-05-16T21:54:09.403Z,28.73
2019-05-16T21:56:40.283Z,28.00
2019-05-16T21:59:11.861Z,31.25
2019-05-16T22:01:43.173Z,29.07
2019-05-16T22:04:14.426Z,31.93
2019-05-16T22:06:47.483Z,27.93
2019-05-16T22:09:17.957Z,39.73
2019-05-16T22:11:49.672Z,35.28
2019-05-16T22:14:22.937Z,35.45
2019-05-16T22:16:53.784Z,34.23
2019-05-16T22:19:24.441Z,35.05
2019-05-16T22:21:56.422Z,35.83
2019-05-16T22:24:27.652Z,35.35
2019-05-16T22:26:58.509Z,34.43
